sensor_id;sensor_type;location;lat;lon;timestamp;temperature;humidity
18741;DHT22;9499;52.472;13.448;2022-09-25T00:00:19;13.90;99.90
18741;DHT22;9499;52.472;13.448;2022-09-25T00:02:47;13.90;99.90
18741;DHT22;9499;52.472;13.448;2022-09-25T00:05:14;13.80;99.90
18741;DHT22;9499;52.472;13.448;2022-09-25T00:07:40;13.80;99.90
18741;DHT22;9499;52.472;13.448;2022-09-25T00:10:07;13.90;99.90
18741;DHT22;9499;52.472;13.448;2022-09-25T00:12:34;13.80;99.90
18741;DHT22;9499;52.472;13.448;2022-09-25T00:15:00;13.80;99.90
18741;DHT22;9499;52.472;13.448;2022-09-25T00:17:27;13.80;99.90
18741;DHT22;9499;52.472;13.448;2022-09-25T00:19:55;13.80;99.90
18741;DHT22;9499;52.472;13.448;2022-09-25T00:22:22;13.80;99.90
18741;DHT22;9499;52.472;13.448;2022-09-25T00:24:49;13.80;99.90
18741;DHT22;9499;52.472;13.448;2022-09-25T00:27:16;13.80;99.90
18741;DHT22;9499;52.472;13.448;2022-09-25T00:29:44;13.80;99.90
18741;DHT22;9499;52.472;13.448;2022-09-25T00:32:12;13.80;99.90
18741;DHT22;9499;52.472;13.448;2022-09-25T00:34:39;13.80;99.90
18741;DHT22;9499;52.472;13.448;2022-09-25T00:37:07;13.80;99.90
18741;DHT22;9499;52.472;13.448;2022-09-25T00:39:33;13.80;99.90
18741;DHT22;9499;52.472;13.448;2022-09-25T00:42:00;13.80;99.90
18741;DHT22;9499;52.472;13.448;2022-09-25T00:44:50;13.80;99.90
18741;DHT22;9499;52.472;13.448;2022-09-25T00:47:25;13.90;99.90
18741;DHT22;9499;52.472;13.448;2022-09-25T00:49:54;13.90;99.90
18741;DHT22;9499;52.472;13.448;2022-09-25T00:52:23;13.80;99.90
18741;DHT22;9499;52.472;13.448;2022-09-25T00:54:54;13.80;99.90
18741;DHT22;9499;52.472;13.448;2022-09-25T00:57:24;13.80;99.90
18741;DHT22;9499;52.472;13.448;2022-09-25T00:59:55;13.80;99.90
18741;DHT22;9499;52.472;13.448;2022-09-25T01:02:24;13.80;99.90
18741;DHT22;9499;52.472;13.448;2022-09-25T01:04:51;13.80;99.90
18741;DHT22;9499;52.472;13.448;2022-09-25T01:07:18;13.80;99.90
18741;DHT22;9499;52.472;13.448;2022-09-25T01:09:46;13.80;99.90
18741;DHT22;9499;52.472;13.448;2022-09-25T01:12:13;13.70;99.90
18741;DHT22;9499;52.472;13.448;2022-09-25T01:14:40;13.80;99.90
18741;DHT22;9499;52.472;13.448;2022-09-25T01:17:14;13.80;99.90
18741;DHT22;9499;52.472;13.448;2022-09-25T01:19:51;13.70;99.90
18741;DHT22;9499;52.472;13.448;2022-09-25T01:22:25;13.70;99.90
18741;DHT22;9499;52.472;13.448;2022-09-25T01:25:07;13.80;99.90
18741;DHT22;9499;52.472;13.448;2022-09-25T01:27:58;13.70;99.90
18741;DHT22;9499;52.472;13.448;2022-09-25T01:30:34;13.70;99.90
18741;DHT22;9499;52.472;13.448;2022-09-25T01:33:06;13.70;99.90
18741;DHT22;9499;52.472;13.448;2022-09-25T01:35:41;13.70;99.90
18741;DHT22;9499;52.472;13.448;2022-09-25T01:38:20;13.70;99.90
18741;DHT22;9499;52.472;13.448;2022-09-25T01:40:54;13.70;99.90
18741;DHT22;9499;52.472;13.448;2022-09-25T01:43:24;13.70;99.90
18741;DHT22;9499;52.472;13.448;2022-09-25T01:45:55;13.70;99.90
18741;DHT22;9499;52.472;13.448;2022-09-25T01:48:24;13.70;99.90
18741;DHT22;9499;52.472;13.448;2022-09-25T01:50:56;13.70;99.90
18741;DHT22;9499;52.472;13.448;2022-09-25T01:53:26;13.70;99.90
18741;DHT22;9499;52.472;13.448;2022-09-25T01:55:58;13.70;99.90
18741;DHT22;9499;52.472;13.448;2022-09-25T01:58:30;13.70;99.90
18741;DHT22;9499;52.472;13.448;2022-09-25T02:01:04;13.70;99.90
18741;DHT22;9499;52.472;13.448;2022-09-25T02:03:37;13.70;99.90
18741;DHT22;9499;52.472;13.448;2022-09-25T02:06:09;13.70;99.90
18741;DHT22;9499;52.472;13.448;2022-09-25T02:08:43;13.70;99.90
18741;DHT22;9499;52.472;13.448;2022-09-25T02:11:12;13.60;99.90
18741;DHT22;9499;52.472;13.448;2022-09-25T02:13:45;13.60;99.90
18741;DHT22;9499;52.472;13.448;2022-09-25T02:16:15;13.60;99.90
18741;DHT22;9499;52.472;13.448;2022-09-25T02:18:42;13.60;99.90
18741;DHT22;9499;52.472;13.448;2022-09-25T02:21:35;13.60;99.90
18741;DHT22;9499;52.472;13.448;2022-09-25T02:24:15;13.60;99.90
18741;DHT22;9499;52.472;13.448;2022-09-25T02:26:44;13.60;99.90
18741;DHT22;9499;52.472;13.448;2022-09-25T02:29:10;13.60;99.90
18741;DHT22;9499;52.472;13.448;2022-09-25T02:31:41;13.60;99.90
18741;DHT22;9499;52.472;13.448;2022-09-25T02:34:10;13.50;99.90
18741;DHT22;9499;52.472;13.448;2022-09-25T02:36:36;13.60;99.90
18741;DHT22;9499;52.472;13.448;2022-09-25T02:39:05;13.50;99.90
18741;DHT22;9499;52.472;13.448;2022-09-25T02:41:43;13.50;99.90
18741;DHT22;9499;52.472;13.448;2022-09-25T02:44:19;13.50;99.90
18741;DHT22;9499;52.472;13.448;2022-09-25T02:47:00;13.50;99.90
18741;DHT22;9499;52.472;13.448;2022-09-25T02:49:34;13.40;99.90
18741;DHT22;9499;52.472;13.448;2022-09-25T02:52:08;13.40;99.90
18741;DHT22;9499;52.472;13.448;2022-09-25T02:54:41;13.40;99.90
18741;DHT22;9499;52.472;13.448;2022-09-25T02:57:15;13.40;99.90
18741;DHT22;9499;52.472;13.448;2022-09-25T02:59:48;13.40;99.90
18741;DHT22;9499;52.472;13.448;2022-09-25T03:02:19;13.40;99.90
18741;DHT22;9499;52.472;13.448;2022-09-25T03:04:46;13.40;99.90
18741;DHT22;9499;52.472;13.448;2022-09-25T03:07:14;13.40;99.90
18741;DHT22;9499;52.472;13.448;2022-09-25T03:09:43;13.40;99.90
18741;DHT22;9499;52.472;13.448;2022-09-25T03:12:11;13.30;99.90
18741;DHT22;9499;52.472;13.448;2022-09-25T03:14:39;13.40;99.90
18741;DHT22;9499;52.472;13.448;2022-09-25T03:17:15;13.30;99.90
18741;DHT22;9499;52.472;13.448;2022-09-25T03:19:45;13.30;99.90
18741;DHT22;9499;52.472;13.448;2022-09-25T03:22:12;13.30;99.90
18741;DHT22;9499;52.472;13.448;2022-09-25T03:24:38;13.30;99.90
18741;DHT22;9499;52.472;13.448;2022-09-25T03:27:05;13.30;99.90
18741;DHT22;9499;52.472;13.448;2022-09-25T03:29:31;13.30;99.90
18741;DHT22;9499;52.472;13.448;2022-09-25T03:31:58;13.30;99.90
18741;DHT22;9499;52.472;13.448;2022-09-25T03:34:25;13.20;99.90
18741;DHT22;9499;52.472;13.448;2022-09-25T03:36:53;13.20;99.90
18741;DHT22;9499;52.472;13.448;2022-09-25T03:39:19;13.20;99.90
18741;DHT22;9499;52.472;13.448;2022-09-25T03:41:46;13.20;99.90
18741;DHT22;9499;52.472;13.448;2022-09-25T03:44:13;13.20;99.90
18741;DHT22;9499;52.472;13.448;2022-09-25T03:46:39;13.30;99.90
18741;DHT22;9499;52.472;13.448;2022-09-25T03:49:06;13.20;99.90
18741;DHT22;9499;52.472;13.448;2022-09-25T03:51:35;13.20;99.90
18741;DHT22;9499;52.472;13.448;2022-09-25T03:54:03;13.30;99.90
18741;DHT22;9499;52.472;13.448;2022-09-25T03:56:29;13.20;99.90
18741;DHT22;9499;52.472;13.448;2022-09-25T03:58:57;13.20;99.90
18741;DHT22;9499;52.472;13.448;2022-09-25T04:01:24;13.10;99.90
18741;DHT22;9499;52.472;13.448;2022-09-25T04:03:51;13.10;99.90
18741;DHT22;9499;52.472;13.448;2022-09-25T04:06:19;13.10;99.90
18741;DHT22;9499;52.472;13.448;2022-09-25T04:08:47;13.20;99.90
18741;DHT22;9499;52.472;13.448;2022-09-25T04:11:17;13.10;99.90
18741;DHT22;9499;52.472;13.448;2022-09-25T04:13:44;13.10;99.90
18741;DHT22;9499;52.472;13.448;2022-09-25T04:16:12;13.10;99.90
18741;DHT22;9499;52.472;13.448;2022-09-25T04:18:40;13.10;99.90
18741;DHT22;9499;52.472;13.448;2022-09-25T04:21:08;13.10;99.90
18741;DHT22;9499;52.472;13.448;2022-09-25T04:23:36;13.10;99.90
18741;DHT22;9499;52.472;13.448;2022-09-25T04:26:03;13.10;99.90
18741;DHT22;9499;52.472;13.448;2022-09-25T04:28:31;13.20;99.90
18741;DHT22;9499;52.472;13.448;2022-09-25T04:30:58;13.10;99.90
18741;DHT22;9499;52.472;13.448;2022-09-25T04:33:26;13.10;99.90
18741;DHT22;9499;52.472;13.448;2022-09-25T04:36:10;13.10;99.90
18741;DHT22;9499;52.472;13.448;2022-09-25T04:38:37;13.00;99.90
18741;DHT22;9499;52.472;13.448;2022-09-25T04:41:04;13.10;99.90
18741;DHT22;9499;52.472;13.448;2022-09-25T04:43:31;13.10;99.90
18741;DHT22;9499;52.472;13.448;2022-09-25T04:46:00;13.10;99.90
18741;DHT22;9499;52.472;13.448;2022-09-25T04:48:27;13.10;99.90
18741;DHT22;9499;52.472;13.448;2022-09-25T04:50:53;13.10;99.90
18741;DHT22;9499;52.472;13.448;2022-09-25T04:53:20;13.10;99.90
18741;DHT22;9499;52.472;13.448;2022-09-25T04:55:47;13.10;99.90
18741;DHT22;9499;52.472;13.448;2022-09-25T04:58:13;13.10;99.90
18741;DHT22;9499;52.472;13.448;2022-09-25T05:00:41;13.10;99.90
18741;DHT22;9499;52.472;13.448;2022-09-25T05:03:08;13.10;99.90
18741;DHT22;9499;52.472;13.448;2022-09-25T05:05:34;13.10;99.90
18741;DHT22;9499;52.472;13.448;2022-09-25T05:08:02;13.00;99.90
18741;DHT22;9499;52.472;13.448;2022-09-25T05:10:30;13.00;99.90
18741;DHT22;9499;52.472;13.448;2022-09-25T05:12:58;13.00;99.90
18741;DHT22;9499;52.472;13.448;2022-09-25T05:15:26;13.00;99.90
18741;DHT22;9499;52.472;13.448;2022-09-25T05:18:00;13.00;99.90
18741;DHT22;9499;52.472;13.448;2022-09-25T05:20:27;13.00;99.90
18741;DHT22;9499;52.472;13.448;2022-09-25T05:22:54;13.00;99.90
18741;DHT22;9499;52.472;13.448;2022-09-25T05:25:21;13.00;99.90
18741;DHT22;9499;52.472;13.448;2022-09-25T05:27:50;13.00;99.90
18741;DHT22;9499;52.472;13.448;2022-09-25T05:30:16;13.00;99.90
18741;DHT22;9499;52.472;13.448;2022-09-25T05:32:46;13.00;99.90
18741;DHT22;9499;52.472;13.448;2022-09-25T05:35:15;13.00;99.90
18741;DHT22;9499;52.472;13.448;2022-09-25T05:37:42;13.00;99.90
18741;DHT22;9499;52.472;13.448;2022-09-25T05:40:09;13.00;99.90
18741;DHT22;9499;52.472;13.448;2022-09-25T05:42:35;13.00;99.90
18741;DHT22;9499;52.472;13.448;2022-09-25T05:45:03;13.00;99.90
18741;DHT22;9499;52.472;13.448;2022-09-25T05:47:29;13.00;99.90
18741;DHT22;9499;52.472;13.448;2022-09-25T05:49:56;13.00;99.90
18741;DHT22;9499;52.472;13.448;2022-09-25T05:52:24;13.00;99.90
18741;DHT22;9499;52.472;13.448;2022-09-25T05:54:51;12.90;99.90
18741;DHT22;9499;52.472;13.448;2022-09-25T05:57:17;12.90;99.90
18741;DHT22;9499;52.472;13.448;2022-09-25T05:59:44;13.00;99.90
18741;DHT22;9499;52.472;13.448;2022-09-25T06:02:12;13.00;99.90
18741;DHT22;9499;52.472;13.448;2022-09-25T06:04:38;13.00;99.90
18741;DHT22;9499;52.472;13.448;2022-09-25T06:07:04;13.00;99.90
18741;DHT22;9499;52.472;13.448;2022-09-25T06:09:32;13.10;99.90
18741;DHT22;9499;52.472;13.448;2022-09-25T06:11:59;13.10;99.90
18741;DHT22;9499;52.472;13.448;2022-09-25T06:14:26;13.10;99.90
18741;DHT22;9499;52.472;13.448;2022-09-25T06:16:52;13.10;99.90
18741;DHT22;9499;52.472;13.448;2022-09-25T06:19:19;13.20;99.90
18741;DHT22;9499;52.472;13.448;2022-09-25T06:21:46;13.10;99.90
18741;DHT22;9499;52.472;13.448;2022-09-25T06:24:12;13.10;99.90
18741;DHT22;9499;52.472;13.448;2022-09-25T06:26:40;13.10;99.90
18741;DHT22;9499;52.472;13.448;2022-09-25T06:29:07;13.10;99.90
18741;DHT22;9499;52.472;13.448;2022-09-25T06:31:34;13.10;99.90
18741;DHT22;9499;52.472;13.448;2022-09-25T06:34:03;13.10;99.90
18741;DHT22;9499;52.472;13.448;2022-09-25T06:36:30;13.20;99.90
18741;DHT22;9499;52.472;13.448;2022-09-25T06:38:57;13.20;99.90
18741;DHT22;9499;52.472;13.448;2022-09-25T06:41:23;13.20;99.90
18741;DHT22;9499;52.472;13.448;2022-09-25T06:43:51;13.20;99.90
18741;DHT22;9499;52.472;13.448;2022-09-25T06:46:18;13.20;99.90
18741;DHT22;9499;52.472;13.448;2022-09-25T06:48:50;13.30;99.90
18741;DHT22;9499;52.472;13.448;2022-09-25T06:51:18;13.30;99.90
18741;DHT22;9499;52.472;13.448;2022-09-25T06:53:46;13.30;99.90
18741;DHT22;9499;52.472;13.448;2022-09-25T06:56:15;13.30;99.90
18741;DHT22;9499;52.472;13.448;2022-09-25T06:58:41;13.40;99.90
18741;DHT22;9499;52.472;13.448;2022-09-25T07:01:09;13.50;99.90
18741;DHT22;9499;52.472;13.448;2022-09-25T07:03:38;13.60;99.90
18741;DHT22;9499;52.472;13.448;2022-09-25T07:06:11;13.60;99.90
18741;DHT22;9499;52.472;13.448;2022-09-25T07:08:39;13.70;99.90
18741;DHT22;9499;52.472;13.448;2022-09-25T07:11:06;13.60;99.90
18741;DHT22;9499;52.472;13.448;2022-09-25T07:13:34;13.60;99.90
18741;DHT22;9499;52.472;13.448;2022-09-25T07:16:06;13.50;99.90
18741;DHT22;9499;52.472;13.448;2022-09-25T07:18:34;13.60;99.90
18741;DHT22;9499;52.472;13.448;2022-09-25T07:21:02;13.60;99.90
18741;DHT22;9499;52.472;13.448;2022-09-25T07:23:29;13.60;99.90
18741;DHT22;9499;52.472;13.448;2022-09-25T07:26:03;13.60;99.90
18741;DHT22;9499;52.472;13.448;2022-09-25T07:28:29;13.60;99.90
18741;DHT22;9499;52.472;13.448;2022-09-25T07:30:56;13.60;99.90
18741;DHT22;9499;52.472;13.448;2022-09-25T07:33:22;13.70;99.90
18741;DHT22;9499;52.472;13.448;2022-09-25T07:35:51;13.70;99.90
18741;DHT22;9499;52.472;13.448;2022-09-25T07:38:18;13.80;99.90
18741;DHT22;9499;52.472;13.448;2022-09-25T07:40:44;13.80;99.90
18741;DHT22;9499;52.472;13.448;2022-09-25T07:43:11;13.80;99.90
18741;DHT22;9499;52.472;13.448;2022-09-25T07:45:38;13.90;99.90
18741;DHT22;9499;52.472;13.448;2022-09-25T07:48:14;13.90;99.90
18741;DHT22;9499;52.472;13.448;2022-09-25T07:50:41;13.90;99.90
18741;DHT22;9499;52.472;13.448;2022-09-25T07:53:09;14.00;99.90
18741;DHT22;9499;52.472;13.448;2022-09-25T07:55:35;14.10;99.90
18741;DHT22;9499;52.472;13.448;2022-09-25T07:58:02;14.20;99.90
18741;DHT22;9499;52.472;13.448;2022-09-25T08:00:29;14.30;99.90
18741;DHT22;9499;52.472;13.448;2022-09-25T08:02:57;14.30;99.90
18741;DHT22;9499;52.472;13.448;2022-09-25T08:05:24;14.30;99.90
18741;DHT22;9499;52.472;13.448;2022-09-25T08:07:51;14.40;99.90
18741;DHT22;9499;52.472;13.448;2022-09-25T08:10:20;14.50;99.90
18741;DHT22;9499;52.472;13.448;2022-09-25T08:12:47;14.50;99.90
18741;DHT22;9499;52.472;13.448;2022-09-25T08:15:13;14.60;99.90
18741;DHT22;9499;52.472;13.448;2022-09-25T08:17:41;14.60;99.90
18741;DHT22;9499;52.472;13.448;2022-09-25T08:20:08;14.60;99.90
18741;DHT22;9499;52.472;13.448;2022-09-25T08:22:35;14.60;99.90
18741;DHT22;9499;52.472;13.448;2022-09-25T08:25:02;14.60;99.90
18741;DHT22;9499;52.472;13.448;2022-09-25T08:27:30;14.60;99.90
18741;DHT22;9499;52.472;13.448;2022-09-25T08:29:56;14.70;99.90
18741;DHT22;9499;52.472;13.448;2022-09-25T08:32:23;14.80;99.90
18741;DHT22;9499;52.472;13.448;2022-09-25T08:34:50;14.80;99.90
18741;DHT22;9499;52.472;13.448;2022-09-25T08:37:16;14.90;99.90
18741;DHT22;9499;52.472;13.448;2022-09-25T08:39:44;14.80;99.90
18741;DHT22;9499;52.472;13.448;2022-09-25T08:42:15;14.80;99.90
18741;DHT22;9499;52.472;13.448;2022-09-25T08:44:47;14.90;99.90
18741;DHT22;9499;52.472;13.448;2022-09-25T08:47:35;14.90;99.90
18741;DHT22;9499;52.472;13.448;2022-09-25T08:50:29;14.90;99.90
18741;DHT22;9499;52.472;13.448;2022-09-25T08:53:03;14.90;99.90
18741;DHT22;9499;52.472;13.448;2022-09-25T08:55:33;14.90;99.90
18741;DHT22;9499;52.472;13.448;2022-09-25T08:58:18;14.90;99.90
18741;DHT22;9499;52.472;13.448;2022-09-25T09:00:48;15.00;99.90
18741;DHT22;9499;52.472;13.448;2022-09-25T09:03:15;15.00;99.90
18741;DHT22;9499;52.472;13.448;2022-09-25T09:05:44;15.10;99.90
18741;DHT22;9499;52.472;13.448;2022-09-25T09:08:14;15.20;99.90
18741;DHT22;9499;52.472;13.448;2022-09-25T09:10:44;15.30;99.90
18741;DHT22;9499;52.472;13.448;2022-09-25T09:13:17;15.40;99.90
18741;DHT22;9499;52.472;13.448;2022-09-25T09:15:51;15.50;99.90
18741;DHT22;9499;52.472;13.448;2022-09-25T09:18:21;15.60;99.90
18741;DHT22;9499;52.472;13.448;2022-09-25T09:20:51;15.60;99.90
18741;DHT22;9499;52.472;13.448;2022-09-25T09:23:19;15.60;99.90
18741;DHT22;9499;52.472;13.448;2022-09-25T09:25:54;15.60;99.90
18741;DHT22;9499;52.472;13.448;2022-09-25T09:31:26;15.80;99.90
18741;DHT22;9499;52.472;13.448;2022-09-25T09:34:04;15.90;99.90
18741;DHT22;9499;52.472;13.448;2022-09-25T09:36:42;16.00;99.90
18741;DHT22;9499;52.472;13.448;2022-09-25T09:39:15;16.00;99.90
18741;DHT22;9499;52.472;13.448;2022-09-25T09:41:55;15.90;99.90
18741;DHT22;9499;52.472;13.448;2022-09-25T09:44:36;16.00;99.90
18741;DHT22;9499;52.472;13.448;2022-09-25T09:47:19;16.00;99.90
18741;DHT22;9499;52.472;13.448;2022-09-25T09:49:51;16.10;99.90
18741;DHT22;9499;52.472;13.448;2022-09-25T09:52:21;16.10;99.90
18741;DHT22;9499;52.472;13.448;2022-09-25T09:54:51;16.20;99.90
18741;DHT22;9499;52.472;13.448;2022-09-25T09:57:23;16.30;99.90
18741;DHT22;9499;52.472;13.448;2022-09-25T09:59:54;16.30;99.90
18741;DHT22;9499;52.472;13.448;2022-09-25T10:02:29;16.50;99.90
18741;DHT22;9499;52.472;13.448;2022-09-25T10:04:59;16.70;99.90
18741;DHT22;9499;52.472;13.448;2022-09-25T10:07:29;17.00;99.90
18741;DHT22;9499;52.472;13.448;2022-09-25T10:09:57;17.20;99.90
18741;DHT22;9499;52.472;13.448;2022-09-25T10:12:27;17.50;99.90
18741;DHT22;9499;52.472;13.448;2022-09-25T10:14:56;17.70;99.90
18741;DHT22;9499;52.472;13.448;2022-09-25T10:17:24;17.70;99.90
18741;DHT22;9499;52.472;13.448;2022-09-25T10:19:57;17.60;99.90
18741;DHT22;9499;52.472;13.448;2022-09-25T10:22:26;17.80;99.90
18741;DHT22;9499;52.472;13.448;2022-09-25T10:24:57;17.90;99.90
18741;DHT22;9499;52.472;13.448;2022-09-25T10:27:29;17.80;99.90
18741;DHT22;9499;52.472;13.448;2022-09-25T10:30:16;17.80;99.90
18741;DHT22;9499;52.472;13.448;2022-09-25T10:32:49;17.90;99.90
18741;DHT22;9499;52.472;13.448;2022-09-25T10:35:21;18.10;99.90
18741;DHT22;9499;52.472;13.448;2022-09-25T10:37:51;18.30;99.90
18741;DHT22;9499;52.472;13.448;2022-09-25T10:40:29;18.50;99.90
18741;DHT22;9499;52.472;13.448;2022-09-25T10:43:03;18.70;99.90
18741;DHT22;9499;52.472;13.448;2022-09-25T10:45:31;18.90;99.90
18741;DHT22;9499;52.472;13.448;2022-09-25T10:47:59;19.00;99.90
18741;DHT22;9499;52.472;13.448;2022-09-25T10:50:46;19.00;99.90
18741;DHT22;9499;52.472;13.448;2022-09-25T10:53:31;19.10;99.90
18741;DHT22;9499;52.472;13.448;2022-09-25T10:56:01;19.30;99.90
18741;DHT22;9499;52.472;13.448;2022-09-25T10:58:34;19.40;99.90
18741;DHT22;9499;52.472;13.448;2022-09-25T11:01:02;19.70;99.90
18741;DHT22;9499;52.472;13.448;2022-09-25T11:03:31;20.00;99.90
18741;DHT22;9499;52.472;13.448;2022-09-25T11:06:02;20.10;99.90
18741;DHT22;9499;52.472;13.448;2022-09-25T11:08:33;20.30;99.90
18741;DHT22;9499;52.472;13.448;2022-09-25T11:11:04;20.40;99.90
18741;DHT22;9499;52.472;13.448;2022-09-25T11:13:39;20.70;99.90
18741;DHT22;9499;52.472;13.448;2022-09-25T11:16:11;20.90;99.90
18741;DHT22;9499;52.472;13.448;2022-09-25T11:18:42;21.10;99.90
18741;DHT22;9499;52.472;13.448;2022-09-25T11:21:24;21.00;99.90
18741;DHT22;9499;52.472;13.448;2022-09-25T11:24:06;20.70;99.90
18741;DHT22;9499;52.472;13.448;2022-09-25T11:26:37;20.30;99.90
18741;DHT22;9499;52.472;13.448;2022-09-25T11:29:10;20.10;99.90
18741;DHT22;9499;52.472;13.448;2022-09-25T11:31:41;20.00;99.90
18741;DHT22;9499;52.472;13.448;2022-09-25T11:34:17;19.80;99.90
18741;DHT22;9499;52.472;13.448;2022-09-25T11:36:52;19.50;99.90
18741;DHT22;9499;52.472;13.448;2022-09-25T11:39:29;19.30;99.90
18741;DHT22;9499;52.472;13.448;2022-09-25T11:42:17;19.20;99.90
18741;DHT22;9499;52.472;13.448;2022-09-25T11:44:51;19.20;99.90
18741;DHT22;9499;52.472;13.448;2022-09-25T11:47:25;19.30;99.90
18741;DHT22;9499;52.472;13.448;2022-09-25T11:49:54;19.40;99.90
18741;DHT22;9499;52.472;13.448;2022-09-25T11:52:34;19.40;99.90
18741;DHT22;9499;52.472;13.448;2022-09-25T11:58:31;19.40;99.90
18741;DHT22;9499;52.472;13.448;2022-09-25T12:01:09;19.30;99.90
18741;DHT22;9499;52.472;13.448;2022-09-25T12:03:56;19.20;99.90
18741;DHT22;9499;52.472;13.448;2022-09-25T12:06:37;19.10;99.90
18741;DHT22;9499;52.472;13.448;2022-09-25T12:09:44;19.10;99.90
18741;DHT22;9499;52.472;13.448;2022-09-25T12:12:19;19.20;99.90
18741;DHT22;9499;52.472;13.448;2022-09-25T12:14:56;19.40;99.90
18741;DHT22;9499;52.472;13.448;2022-09-25T12:17:31;19.60;99.90
18741;DHT22;9499;52.472;13.448;2022-09-25T12:20:05;19.80;99.90
18741;DHT22;9499;52.472;13.448;2022-09-25T12:22:45;20.00;99.90
18741;DHT22;9499;52.472;13.448;2022-09-25T12:25:28;20.20;99.90
18741;DHT22;9499;52.472;13.448;2022-09-25T12:28:01;20.50;99.90
18741;DHT22;9499;52.472;13.448;2022-09-25T12:30:37;20.90;99.90
18741;DHT22;9499;52.472;13.448;2022-09-25T12:33:14;21.40;99.90
18741;DHT22;9499;52.472;13.448;2022-09-25T12:35:48;21.70;99.90
18741;DHT22;9499;52.472;13.448;2022-09-25T12:38:22;21.90;99.90
18741;DHT22;9499;52.472;13.448;2022-09-25T12:40:58;21.90;99.90
18741;DHT22;9499;52.472;13.448;2022-09-25T12:43:30;21.90;99.90
18741;DHT22;9499;52.472;13.448;2022-09-25T12:46:07;22.00;99.90
18741;DHT22;9499;52.472;13.448;2022-09-25T12:48:39;21.90;99.90
18741;DHT22;9499;52.472;13.448;2022-09-25T12:51:12;21.70;99.90
18741;DHT22;9499;52.472;13.448;2022-09-25T12:53:44;21.50;99.90
18741;DHT22;9499;52.472;13.448;2022-09-25T12:56:17;21.00;99.90
18741;DHT22;9499;52.472;13.448;2022-09-25T12:58:53;20.70;99.90
18741;DHT22;9499;52.472;13.448;2022-09-25T13:01:26;20.60;99.90
18741;DHT22;9499;52.472;13.448;2022-09-25T13:04:01;20.60;99.90
18741;DHT22;9499;52.472;13.448;2022-09-25T13:06:35;20.60;99.90
18741;DHT22;9499;52.472;13.448;2022-09-25T13:09:13;20.60;99.90
18741;DHT22;9499;52.472;13.448;2022-09-25T13:11:46;20.50;99.90
18741;DHT22;9499;52.472;13.448;2022-09-25T13:14:26;20.50;99.90
18741;DHT22;9499;52.472;13.448;2022-09-25T13:16:54;20.50;99.90
18741;DHT22;9499;52.472;13.448;2022-09-25T13:19:24;20.50;99.90
18741;DHT22;9499;52.472;13.448;2022-09-25T13:21:51;20.50;99.90
18741;DHT22;9499;52.472;13.448;2022-09-25T13:24:23;20.40;99.90
18741;DHT22;9499;52.472;13.448;2022-09-25T13:26:53;20.40;99.90
18741;DHT22;9499;52.472;13.448;2022-09-25T13:29:22;20.40;99.90
18741;DHT22;9499;52.472;13.448;2022-09-25T13:31:49;20.50;99.90
18741;DHT22;9499;52.472;13.448;2022-09-25T13:34:19;20.80;99.90
18741;DHT22;9499;52.472;13.448;2022-09-25T13:36:50;21.10;99.90
18741;DHT22;9499;52.472;13.448;2022-09-25T13:39:21;21.10;99.90
18741;DHT22;9499;52.472;13.448;2022-09-25T13:42:15;21.10;99.90
18741;DHT22;9499;52.472;13.448;2022-09-25T13:45:00;21.20;99.90
18741;DHT22;9499;52.472;13.448;2022-09-25T13:50:30;21.40;99.90
18741;DHT22;9499;52.472;13.448;2022-09-25T13:53:14;21.30;99.90
18741;DHT22;9499;52.472;13.448;2022-09-25T14:02:36;20.50;99.90
18741;DHT22;9499;52.472;13.448;2022-09-25T14:05:04;20.30;99.90
18741;DHT22;9499;52.472;13.448;2022-09-25T14:07:31;20.30;99.90
18741;DHT22;9499;52.472;13.448;2022-09-25T14:10:00;20.20;99.90
18741;DHT22;9499;52.472;13.448;2022-09-25T14:12:32;20.20;99.90
18741;DHT22;9499;52.472;13.448;2022-09-25T14:15:05;20.10;99.90
18741;DHT22;9499;52.472;13.448;2022-09-25T14:17:35;20.00;99.90
18741;DHT22;9499;52.472;13.448;2022-09-25T14:20:05;20.00;99.90
18741;DHT22;9499;52.472;13.448;2022-09-25T14:22:35;19.90;99.90
18741;DHT22;9499;52.472;13.448;2022-09-25T14:25:23;19.90;99.90
18741;DHT22;9499;52.472;13.448;2022-09-25T14:27:51;20.00;99.90
18741;DHT22;9499;52.472;13.448;2022-09-25T14:30:18;20.10;99.90
18741;DHT22;9499;52.472;13.448;2022-09-25T14:32:56;20.30;99.90
18741;DHT22;9499;52.472;13.448;2022-09-25T14:35:33;20.40;99.90
18741;DHT22;9499;52.472;13.448;2022-09-25T14:38:22;20.40;99.90
18741;DHT22;9499;52.472;13.448;2022-09-25T14:41:10;20.10;99.90
18741;DHT22;9499;52.472;13.448;2022-09-25T14:43:57;19.80;99.90
18741;DHT22;9499;52.472;13.448;2022-09-25T14:46:28;19.80;99.90
18741;DHT22;9499;52.472;13.448;2022-09-25T14:49:05;19.80;99.90
18741;DHT22;9499;52.472;13.448;2022-09-25T14:51:37;19.80;99.90
18741;DHT22;9499;52.472;13.448;2022-09-25T14:54:08;19.90;99.90
18741;DHT22;9499;52.472;13.448;2022-09-25T14:56:40;19.80;99.90
18741;DHT22;9499;52.472;13.448;2022-09-25T14:59:19;19.70;99.90
18741;DHT22;9499;52.472;13.448;2022-09-25T15:01:50;19.50;99.90
18741;DHT22;9499;52.472;13.448;2022-09-25T15:04:26;19.30;99.90
18741;DHT22;9499;52.472;13.448;2022-09-25T15:07:00;19.20;99.90
18741;DHT22;9499;52.472;13.448;2022-09-25T15:09:29;19.20;99.90
18741;DHT22;9499;52.472;13.448;2022-09-25T15:11:56;19.20;99.90
18741;DHT22;9499;52.472;13.448;2022-09-25T15:14:23;19.20;99.90
18741;DHT22;9499;52.472;13.448;2022-09-25T15:16:49;19.10;99.90
18741;DHT22;9499;52.472;13.448;2022-09-25T15:19:38;19.10;99.90
18741;DHT22;9499;52.472;13.448;2022-09-25T15:22:08;19.00;99.90
18741;DHT22;9499;52.472;13.448;2022-09-25T15:24:36;19.00;99.90
18741;DHT22;9499;52.472;13.448;2022-09-25T15:27:06;19.00;99.90
18741;DHT22;9499;52.472;13.448;2022-09-25T15:29:35;19.00;99.90
18741;DHT22;9499;52.472;13.448;2022-09-25T15:32:03;18.90;99.90
18741;DHT22;9499;52.472;13.448;2022-09-25T15:34:32;18.80;99.90
18741;DHT22;9499;52.472;13.448;2022-09-25T15:37:17;18.80;99.90
18741;DHT22;9499;52.472;13.448;2022-09-25T15:39:45;18.70;99.90
18741;DHT22;9499;52.472;13.448;2022-09-25T15:42:12;18.60;99.90
18741;DHT22;9499;52.472;13.448;2022-09-25T15:44:39;18.40;99.90
18741;DHT22;9499;52.472;13.448;2022-09-25T15:50:20;18.30;99.90
18741;DHT22;9499;52.472;13.448;2022-09-25T15:52:48;18.20;99.90
18741;DHT22;9499;52.472;13.448;2022-09-25T15:55:16;18.20;99.90
18741;DHT22;9499;52.472;13.448;2022-09-25T15:57:43;18.10;99.90
18741;DHT22;9499;52.472;13.448;2022-09-25T16:00:16;18.10;99.90
18741;DHT22;9499;52.472;13.448;2022-09-25T16:03:04;18.10;99.90
18741;DHT22;9499;52.472;13.448;2022-09-25T16:05:50;18.00;99.90
18741;DHT22;9499;52.472;13.448;2022-09-25T16:08:26;17.90;99.90
18741;DHT22;9499;52.472;13.448;2022-09-25T16:11:16;17.80;99.90
18741;DHT22;9499;52.472;13.448;2022-09-25T16:13:45;17.80;99.90